Time;durP1;ratioP1;P1;durP2;ratioP2;P2;SDS_P1;SDS_P2;PMS_P1;PMS_P2;Temp;Humidity;BMP_temperature;BMP_pressure;BME280_temperature;BME280_humidity;BME280_pressure;Samples;Min_cycle;Max_cycle;Signal;HPM_P1;HPM_P2
2022/03/11 00:00:36;;;;;;;21.70;8.40;;;;;;;;;;5111230;27;20036;-78
2022/03/11 00:03:01;;;;;;;23.20;10.15;;;;;;;;;;5106870;28;20401;-78
2022/03/11 00:05:26;;;;;;;20.25;8.57;;;;;;;;;;5125607;27;20023;-78
2022/03/11 00:07:51;;;;;;;19.17;8.30;;;;;;;;;;5118459;27;20100;-78
2022/03/11 00:10:17;;;;;;;20.63;8.45;;;;;;;;;;5111992;27;20038;-78
2022/03/11 00:12:43;;;;;;;20.98;8.32;;;;;;;;;;5112052;27;20032;-78
2022/03/11 00:15:09;;;;;;;22.13;8.75;;;;;;;;;;5099782;28;20047;-78
2022/03/11 00:17:35;;;;;;;19.88;8.05;;;;;;;;;;5091504;28;20024;-77
2022/03/11 00:20:01;;;;;;;23.02;8.60;;;;;;;;;;5104766;28;20032;-78
2022/03/11 00:22:26;;;;;;;20.13;8.35;;;;;;;;;;5098098;27;20092;-78
2022/03/11 00:24:51;;;;;;;20.88;8.10;;;;;;;;;;5085271;28;20032;-78
2022/03/11 00:27:16;;;;;;;17.60;7.57;;;;;;;;;;5091109;27;20043;-78
2022/03/11 00:29:42;;;;;;;17.98;7.85;;;;;;;;;;5089389;28;20059;-78
2022/03/11 00:32:08;;;;;;;13.43;5.68;;;;;;;;;;5079307;28;20034;-78
2022/03/11 00:34:34;;;;;;;18.73;7.78;;;;;;;;;;5078630;28;20165;-78
2022/03/11 00:37:00;;;;;;;15.90;6.80;;;;;;;;;;5073983;28;20115;-78
2022/03/11 00:39:25;;;;;;;19.63;7.53;;;;;;;;;;5083038;28;20066;-78
2022/03/11 00:41:51;;;;;;;16.73;6.97;;;;;;;;;;5091075;28;20028;-78
2022/03/11 00:44:16;;;;;;;19.90;8.10;;;;;;;;;;5089125;28;20039;-78
2022/03/11 00:46:42;;;;;;;18.50;7.30;;;;;;;;;;5090502;27;20032;-77
2022/03/11 00:49:07;;;;;;;17.55;7.40;;;;;;;;;;5074255;28;20047;-78
2022/03/11 00:51:33;;;;;;;20.95;7.88;;;;;;;;;;5105604;27;20032;-77
2022/03/11 00:53:58;;;;;;;18.95;7.68;;;;;;;;;;5081202;28;20086;-78
2022/03/11 00:56:24;;;;;;;19.08;7.35;;;;;;;;;;5090877;28;20024;-78
2022/03/11 00:58:49;;;;;;;15.85;6.75;;;;;;;;;;5072369;28;20050;-78
2022/03/11 01:01:15;;;;;;;19.60;7.53;;;;;;;;;;5076867;28;20110;-78
2022/03/11 01:03:40;;;;;;;17.38;6.85;;;;;;;;;;5081526;28;20036;-78
2022/03/11 01:06:06;;;;;;;21.67;7.82;;;;;;;;;;5096405;28;20035;-78
2022/03/11 01:08:31;;;;;;;15.40;6.53;;;;;;;;;;5103049;28;20024;-77
2022/03/11 01:10:56;;;;;;;18.20;7.60;;;;;;;;;;5102678;28;20053;-77
2022/03/11 01:13:22;;;;;;;20.45;7.70;;;;;;;;;;5098436;28;20035;-77
2022/03/11 01:15:47;;;;;;;19.33;7.45;;;;;;;;;;5109109;27;20039;-78
2022/03/11 01:18:13;;;;;;;15.60;7.13;;;;;;;;;;5103224;27;20516;-78
2022/03/11 01:20:38;;;;;;;18.98;6.72;;;;;;;;;;5089701;28;20406;-77
2022/03/11 01:23:03;;;;;;;22.05;7.13;;;;;;;;;;5087545;28;20461;-77
2022/03/11 01:25:29;;;;;;;18.17;7.00;;;;;;;;;;5085651;28;20539;-78
2022/03/11 01:27:54;;;;;;;17.75;7.15;;;;;;;;;;5087166;27;20032;-78
2022/03/11 01:30:19;;;;;;;22.27;8.50;;;;;;;;;;5095180;28;20081;-77
2022/03/11 01:32:45;;;;;;;18.15;7.03;;;;;;;;;;5110324;27;20024;-77
2022/03/11 01:35:11;;;;;;;19.55;7.30;;;;;;;;;;5133612;27;20035;-77
2022/03/11 01:37:36;;;;;;;16.27;6.35;;;;;;;;;;5121348;27;20077;-77
2022/03/11 01:40:04;;;;;;;21.20;7.72;;;;;;;;;;5109196;27;20028;-77
2022/03/11 01:42:29;;;;;;;21.98;7.60;;;;;;;;;;5101136;28;20039;-78
2022/03/11 01:44:54;;;;;;;18.95;8.25;;;;;;;;;;5108072;28;20527;-77
2022/03/11 01:47:20;;;;;;;17.70;7.72;;;;;;;;;;5110081;28;20072;-77
2022/03/11 01:49:45;;;;;;;16.23;7.35;;;;;;;;;;5108911;27;20027;-78
2022/03/11 01:52:15;;;;;;;16.15;7.50;;;;;;;;;;5108524;27;20119;-78
2022/03/11 01:54:44;;;;;;;17.88;7.35;;;;;;;;;;5092936;28;20501;-78
2022/03/11 01:57:10;;;;;;;18.23;7.88;;;;;;;;;;5099441;27;20051;-78
2022/03/11 01:59:35;;;;;;;21.05;7.18;;;;;;;;;;5103162;27;20619;-78
2022/03/11 02:02:01;;;;;;;17.13;7.57;;;;;;;;;;5107571;28;20120;-78
2022/03/11 02:04:26;;;;;;;18.65;7.07;;;;;;;;;;5110876;27;20027;-77
2022/03/11 02:06:52;;;;;;;17.95;7.35;;;;;;;;;;5102738;27;20063;-77
2022/03/11 02:09:18;;;;;;;20.83;8.30;;;;;;;;;;5099997;27;20521;-78
2022/03/11 02:11:45;;;;;;;19.50;8.23;;;;;;;;;;5107940;28;20038;-77
2022/03/11 02:14:11;;;;;;;14.75;7.13;;;;;;;;;;5109858;28;20499;-78
2022/03/11 02:16:37;;;;;;;16.58;6.53;;;;;;;;;;5106733;28;20118;-77
2022/03/11 02:19:04;;;;;;;15.32;6.43;;;;;;;;;;5108163;28;20703;-78
2022/03/11 02:21:30;;;;;;;18.35;6.80;;;;;;;;;;5109241;28;20043;-78
2022/03/11 02:23:59;;;;;;;14.70;7.18;;;;;;;;;;5089055;28;20028;-77
2022/03/11 02:26:27;;;;;;;18.30;6.97;;;;;;;;;;5108837;28;20024;-78
2022/03/11 02:28:55;;;;;;;15.18;6.32;;;;;;;;;;5101203;27;20032;-78
2022/03/11 02:31:23;;;;;;;17.25;6.40;;;;;;;;;;5095155;28;20039;-77
2022/03/11 02:33:49;;;;;;;15.82;7.57;;;;;;;;;;5096024;28;20027;-78
2022/03/11 02:36:14;;;;;;;14.43;6.55;;;;;;;;;;5107359;28;20919;-77
2022/03/11 02:38:39;;;;;;;14.38;6.55;;;;;;;;;;5109883;28;20029;-77
2022/03/11 02:41:06;;;;;;;14.45;6.38;;;;;;;;;;5112364;28;20030;-77
2022/03/11 02:43:31;;;;;;;19.27;7.00;;;;;;;;;;5111865;28;20024;-78
2022/03/11 02:45:57;;;;;;;13.52;6.50;;;;;;;;;;5099265;28;20035;-77
2022/03/11 02:48:22;;;;;;;19.67;7.10;;;;;;;;;;5092547;28;20032;-77
2022/03/11 02:50:47;;;;;;;18.17;7.15;;;;;;;;;;5120424;27;20047;-77
2022/03/11 02:53:13;;;;;;;16.20;6.80;;;;;;;;;;5115196;27;20050;-77
2022/03/11 02:55:39;;;;;;;15.95;7.45;;;;;;;;;;5111926;28;20059;-78
2022/03/11 02:58:05;;;;;;;16.88;6.68;;;;;;;;;;5099504;28;20125;-77
2022/03/11 03:00:30;;;;;;;18.27;7.43;;;;;;;;;;5107887;27;20531;-77
2022/03/11 03:02:56;;;;;;;13.48;6.32;;;;;;;;;;5103623;28;20038;-78
2022/03/11 03:05:21;;;;;;;18.00;6.95;;;;;;;;;;5122923;27;20039;-77
2022/03/11 03:07:47;;;;;;;15.52;6.90;;;;;;;;;;5117547;27;20043;-78
2022/03/11 03:10:12;;;;;;;16.30;6.38;;;;;;;;;;5113083;27;20039;-78
2022/03/11 03:12:38;;;;;;;16.40;6.70;;;;;;;;;;5110975;27;20603;-77
2022/03/11 03:15:05;;;;;;;14.48;6.10;;;;;;;;;;5103804;27;20040;-78
2022/03/11 03:17:30;;;;;;;16.05;6.28;;;;;;;;;;5078174;28;20028;-77
2022/03/11 03:19:56;;;;;;;15.00;6.30;;;;;;;;;;5095108;28;20385;-77
2022/03/11 03:22:21;;;;;;;18.92;6.35;;;;;;;;;;5092536;27;20145;-78
2022/03/11 03:24:47;;;;;;;16.15;6.75;;;;;;;;;;5088972;28;20032;-78
2022/03/11 03:27:13;;;;;;;14.45;7.03;;;;;;;;;;5079694;28;20047;-78
2022/03/11 03:29:38;;;;;;;15.93;7.07;;;;;;;;;;5092482;28;20058;-77
2022/03/11 03:32:04;;;;;;;17.00;6.95;;;;;;;;;;5091111;28;20039;-78
2022/03/11 03:34:32;;;;;;;15.10;6.28;;;;;;;;;;5088825;28;20048;-77
2022/03/11 03:36:58;;;;;;;16.20;6.65;;;;;;;;;;5087912;28;20039;-77
2022/03/11 03:39:24;;;;;;;17.42;6.72;;;;;;;;;;5090096;28;20085;-77
2022/03/11 03:41:50;;;;;;;15.38;6.75;;;;;;;;;;5094501;27;20038;-77
2022/03/11 03:44:16;;;;;;;17.67;6.85;;;;;;;;;;5112610;28;20036;-77
2022/03/11 03:46:41;;;;;;;17.67;7.88;;;;;;;;;;5110772;28;20040;-77
2022/03/11 03:49:07;;;;;;;17.35;7.03;;;;;;;;;;5105028;27;20134;-78
2022/03/11 03:51:32;;;;;;;15.98;6.90;;;;;;;;;;5113362;27;20040;-78
2022/03/11 03:53:57;;;;;;;19.67;8.07;;;;;;;;;;5106271;27;20039;-77
2022/03/11 03:56:23;;;;;;;16.63;7.22;;;;;;;;;;5111102;28;20023;-78
2022/03/11 03:58:48;;;;;;;18.50;7.70;;;;;;;;;;5111535;27;20055;-78
2022/03/11 04:01:14;;;;;;;16.40;6.97;;;;;;;;;;5100494;27;20043;-77
2022/03/11 04:03:39;;;;;;;14.85;6.32;;;;;;;;;;5093823;27;20040;-77
2022/03/11 04:06:05;;;;;;;13.85;7.03;;;;;;;;;;5103059;27;20031;-77
2022/03/11 04:08:30;;;;;;;16.50;6.80;;;;;;;;;;5090685;28;20068;-77
2022/03/11 04:10:55;;;;;;;13.50;6.65;;;;;;;;;;5086977;28;20048;-78
2022/03/11 04:13:21;;;;;;;15.95;7.47;;;;;;;;;;5106207;27;20036;-77
2022/03/11 04:15:46;;;;;;;15.75;6.18;;;;;;;;;;5100863;28;20536;-77
2022/03/11 04:18:11;;;;;;;14.77;6.13;;;;;;;;;;5094715;28;20047;-77
2022/03/11 04:20:37;;;;;;;14.00;6.82;;;;;;;;;;5123535;27;20023;-77
2022/03/11 04:23:02;;;;;;;15.80;7.28;;;;;;;;;;5119257;27;20032;-78
2022/03/11 04:25:27;;;;;;;16.95;6.68;;;;;;;;;;5110719;27;20071;-78
2022/03/11 04:27:53;;;;;;;16.63;7.40;;;;;;;;;;5111531;27;20040;-78
2022/03/11 04:30:18;;;;;;;22.90;6.43;;;;;;;;;;5111111;28;20036;-78
2022/03/11 04:32:43;;;;;;;15.32;6.45;;;;;;;;;;5106189;27;20030;-78
2022/03/11 04:35:09;;;;;;;13.88;6.32;;;;;;;;;;5098828;28;20492;-78
2022/03/11 04:37:34;;;;;;;11.82;5.40;;;;;;;;;;5099106;28;20073;-78
2022/03/11 04:40:00;;;;;;;13.63;6.00;;;;;;;;;;5105813;28;20072;-77
2022/03/11 04:42:25;;;;;;;16.75;7.90;;;;;;;;;;5109497;28;20439;-77
2022/03/11 04:44:50;;;;;;;14.32;7.10;;;;;;;;;;5110664;28;20043;-78
2022/03/11 04:47:16;;;;;;;11.43;5.65;;;;;;;;;;5097474;28;20023;-78
2022/03/11 04:49:41;;;;;;;14.52;6.18;;;;;;;;;;5107429;27;20038;-78
2022/03/11 04:52:07;;;;;;;18.23;7.50;;;;;;;;;;5124533;27;20093;-78
2022/03/11 04:54:32;;;;;;;14.82;7.10;;;;;;;;;;5110364;27;20043;-78
2022/03/11 04:56:58;;;;;;;14.57;7.13;;;;;;;;;;5109309;28;20047;-77
2022/03/11 04:59:23;;;;;;;15.43;6.80;;;;;;;;;;5097939;28;20102;-77
2022/03/11 05:01:48;;;;;;;13.13;6.40;;;;;;;;;;5106291;27;20663;-78
2022/03/11 05:04:14;;;;;;;15.75;7.80;;;;;;;;;;5109832;28;20081;-77
2022/03/11 05:06:39;;;;;;;16.20;5.63;;;;;;;;;;5110541;27;20039;-77
2022/03/11 05:09:04;;;;;;;15.30;7.47;;;;;;;;;;5095969;28;20036;-78
2022/03/11 05:11:30;;;;;;;15.30;6.47;;;;;;;;;;5110559;28;20044;-77
2022/03/11 05:13:55;;;;;;;13.95;6.50;;;;;;;;;;5105280;28;20090;-78
2022/03/11 05:16:20;;;;;;;15.38;6.57;;;;;;;;;;5107760;27;20036;-78
2022/03/11 05:18:46;;;;;;;13.20;6.30;;;;;;;;;;5110058;28;20035;-78
2022/03/11 05:21:12;;;;;;;13.88;6.03;;;;;;;;;;5110148;27;20042;-78
2022/03/11 05:23:37;;;;;;;15.52;6.53;;;;;;;;;;5098708;28;20023;-77
2022/03/11 05:26:03;;;;;;;16.23;6.90;;;;;;;;;;5104675;28;20028;-78
2022/03/11 05:28:28;;;;;;;18.38;7.57;;;;;;;;;;5107814;27;20118;-78
2022/03/11 05:30:54;;;;;;;14.25;6.40;;;;;;;;;;5108013;28;20127;-78
2022/03/11 05:33:19;;;;;;;13.55;6.43;;;;;;;;;;5110043;27;20046;-77
2022/03/11 05:35:45;;;;;;;15.48;6.65;;;;;;;;;;5109439;27;20062;-77
2022/03/11 05:38:10;;;;;;;13.55;5.28;;;;;;;;;;5099767;28;20039;-78
2022/03/11 05:40:36;;;;;;;16.25;6.43;;;;;;;;;;5105300;28;20505;-77
2022/03/11 05:43:02;;;;;;;13.63;6.47;;;;;;;;;;5095579;28;20044;-78
2022/03/11 05:45:27;;;;;;;15.25;6.05;;;;;;;;;;5107140;27;20047;-78
2022/03/11 05:47:52;;;;;;;15.82;7.20;;;;;;;;;;5109426;27;20070;-77
2022/03/11 05:50:18;;;;;;;13.80;5.30;;;;;;;;;;5117678;27;20035;-78
2022/03/11 05:52:44;;;;;;;14.35;6.47;;;;;;;;;;5108650;28;20068;-77
2022/03/11 05:55:10;;;;;;;15.98;6.47;;;;;;;;;;5109215;28;20504;-78
2022/03/11 05:57:35;;;;;;;13.50;7.03;;;;;;;;;;5109739;28;20067;-78
2022/03/11 06:00:03;;;;;;;13.95;5.93;;;;;;;;;;5108874;28;20059;-77
2022/03/11 06:02:29;;;;;;;19.40;7.20;;;;;;;;;;5109254;28;20034;-78
2022/03/11 06:04:54;;;;;;;16.63;7.20;;;;;;;;;;5118009;27;20047;-78
2022/03/11 06:07:20;;;;;;;17.70;7.18;;;;;;;;;;5112021;27;20035;-77
2022/03/11 06:09:46;;;;;;;17.20;6.82;;;;;;;;;;5108327;28;20046;-78
2022/03/11 06:12:11;;;;;;;17.73;6.70;;;;;;;;;;5108630;27;20049;-77
2022/03/11 06:14:36;;;;;;;14.27;6.80;;;;;;;;;;5121275;27;20051;-77
2022/03/11 06:17:02;;;;;;;16.52;7.03;;;;;;;;;;5108676;27;20034;-78
2022/03/11 06:19:27;;;;;;;15.55;6.57;;;;;;;;;;5117243;27;20043;-77
2022/03/11 06:21:55;;;;;;;18.88;7.10;;;;;;;;;;5114978;27;20044;-78
2022/03/11 06:24:20;;;;;;;17.67;6.57;;;;;;;;;;5107851;28;20047;-77
2022/03/11 06:26:45;;;;;;;16.33;6.18;;;;;;;;;;5098156;28;20035;-77
2022/03/11 06:29:11;;;;;;;16.13;6.72;;;;;;;;;;5101814;28;20035;-78
2022/03/11 06:31:37;;;;;;;15.00;6.35;;;;;;;;;;5106766;28;20067;-77
2022/03/11 06:34:02;;;;;;;19.48;7.25;;;;;;;;;;5108070;28;20184;-78
2022/03/11 06:36:28;;;;;;;19.48;7.43;;;;;;;;;;5107058;28;20134;-77
2022/03/11 06:38:54;;;;;;;16.08;6.00;;;;;;;;;;5089182;28;20413;-77
2022/03/11 06:41:20;;;;;;;15.00;5.80;;;;;;;;;;5089206;28;20039;-76
2022/03/11 06:43:45;;;;;;;16.17;6.97;;;;;;;;;;5099327;28;20416;-81
2022/03/11 06:46:11;;;;;;;18.25;7.13;;;;;;;;;;5092765;28;20057;-78
2022/03/11 06:48:36;;;;;;;20.60;7.70;;;;;;;;;;5105766;28;20032;-77
2022/03/11 06:51:04;;;;;;;15.88;7.10;;;;;;;;;;5113144;27;20464;-76
2022/03/11 06:53:31;;;;;;;17.65;6.90;;;;;;;;;;5109174;28;20074;-77
2022/03/11 06:55:56;;;;;;;13.75;6.00;;;;;;;;;;5099333;28;20059;-75
2022/03/11 06:58:22;;;;;;;19.45;7.40;;;;;;;;;;5105281;28;20462;-75
2022/03/11 07:00:47;;;;;;;17.73;7.40;;;;;;;;;;5095463;28;20032;-74
2022/03/11 07:03:12;;;;;;;15.48;7.03;;;;;;;;;;5088463;28;20044;-77
2022/03/11 07:05:38;;;;;;;20.50;7.63;;;;;;;;;;5087094;28;20032;-79
2022/03/11 07:08:03;;;;;;;17.95;8.45;;;;;;;;;;5082436;28;20096;-78
2022/03/11 07:10:28;;;;;;;15.00;6.13;;;;;;;;;;5077691;28;20514;-76
2022/03/11 07:12:58;;;;;;;14.00;6.90;;;;;;;;;;5087857;28;20040;-74
2022/03/11 07:15:23;;;;;;;16.30;7.75;;;;;;;;;;5085788;28;20036;-77
2022/03/11 07:17:49;;;;;;;14.75;7.28;;;;;;;;;;5087700;28;20039;-81
2022/03/11 07:20:14;;;;;;;16.73;7.18;;;;;;;;;;5072785;28;20021;-76
2022/03/11 07:22:40;;;;;;;17.92;8.25;;;;;;;;;;5081837;28;20105;-76
2022/03/11 07:25:06;;;;;;;15.70;7.30;;;;;;;;;;5086427;28;20036;-78
2022/03/11 07:27:31;;;;;;;17.27;6.25;;;;;;;;;;5088817;28;20044;-77
2022/03/11 07:29:57;;;;;;;14.02;6.25;;;;;;;;;;5090258;28;20559;-74
2022/03/11 07:32:23;;;;;;;17.10;7.10;;;;;;;;;;5090090;28;20487;-80
2022/03/11 07:34:49;;;;;;;14.20;6.30;;;;;;;;;;5091961;28;20505;-79
2022/03/11 07:37:14;;;;;;;18.25;7.00;;;;;;;;;;5089735;28;20047;-78
2022/03/11 07:39:41;;;;;;;17.08;6.50;;;;;;;;;;5082614;28;20093;-77
2022/03/11 07:42:07;;;;;;;15.10;6.22;;;;;;;;;;5089113;28;20044;-76
2022/03/11 07:44:33;;;;;;;14.40;6.57;;;;;;;;;;5088569;28;20035;-77
2022/03/11 07:46:59;;;;;;;14.75;7.55;;;;;;;;;;5089580;28;20020;-77
2022/03/11 07:49:24;;;;;;;13.05;6.03;;;;;;;;;;5087732;28;20097;-76
2022/03/11 07:51:50;;;;;;;15.13;7.72;;;;;;;;;;5090802;28;20079;-77
2022/03/11 07:54:16;;;;;;;14.57;7.40;;;;;;;;;;5091048;28;20123;-77
2022/03/11 07:56:41;;;;;;;13.75;6.40;;;;;;;;;;5090510;28;20082;-76
2022/03/11 07:59:06;;;;;;;17.27;7.32;;;;;;;;;;5090138;28;20052;-79
2022/03/11 08:01:33;;;;;;;16.35;7.28;;;;;;;;;;5081787;28;20074;-79
2022/03/11 08:03:58;;;;;;;15.32;5.57;;;;;;;;;;5083913;28;20029;-76
2022/03/11 08:06:24;;;;;;;15.55;7.13;;;;;;;;;;5074199;28;20051;-76
2022/03/11 08:08:49;;;;;;;11.80;6.10;;;;;;;;;;5085753;28;20024;-77
2022/03/11 08:11:15;;;;;;;13.23;5.60;;;;;;;;;;5078152;28;20021;-77
2022/03/11 08:13:41;;;;;;;8.18;5.07;;;;;;;;;;5084820;28;20044;-79
2022/03/11 08:16:07;;;;;;;12.50;5.50;;;;;;;;;;5083820;28;20040;-79
2022/03/11 08:18:33;;;;;;;15.15;7.13;;;;;;;;;;5095567;27;20119;-76
2022/03/11 08:20:58;;;;;;;12.30;6.00;;;;;;;;;;5092846;27;20119;-76
2022/03/11 08:23:23;;;;;;;14.25;5.85;;;;;;;;;;5108581;27;20035;-79
2022/03/11 08:25:49;;;;;;;13.02;6.40;;;;;;;;;;5104457;27;20043;-74
2022/03/11 08:28:15;;;;;;;13.05;5.68;;;;;;;;;;5086786;27;20068;-73
2022/03/11 08:30:41;;;;;;;9.38;4.80;;;;;;;;;;5087313;28;20043;-75
2022/03/11 08:33:08;;;;;;;13.45;6.13;;;;;;;;;;5088951;28;20123;-77
2022/03/11 08:35:34;;;;;;;12.88;6.20;;;;;;;;;;5077170;28;20028;-76
2022/03/11 08:38:03;;;;;;;16.35;6.45;;;;;;;;;;5088253;28;20028;-80
2022/03/11 08:40:28;;;;;;;11.57;5.78;;;;;;;;;;5084797;28;20074;-72
2022/03/11 08:42:54;;;;;;;8.13;3.47;;;;;;;;;;5076893;28;20454;-75
2022/03/11 08:45:21;;;;;;;12.13;6.03;;;;;;;;;;5095827;27;20042;-75
2022/03/11 08:47:47;;;;;;;13.13;7.10;;;;;;;;;;5106929;27;20015;-75
2022/03/11 08:50:13;;;;;;;14.43;5.75;;;;;;;;;;5105304;28;20031;-75
2022/03/11 08:52:39;;;;;;;11.30;4.82;;;;;;;;;;5106600;28;20043;-75
2022/03/11 08:55:06;;;;;;;14.65;6.53;;;;;;;;;;5101274;27;20119;-75
2022/03/11 08:57:31;;;;;;;15.07;6.22;;;;;;;;;;5100907;28;20040;-76
2022/03/11 08:59:56;;;;;;;11.43;6.05;;;;;;;;;;5106255;27;20054;-75
2022/03/11 09:02:22;;;;;;;13.15;5.25;;;;;;;;;;5107480;27;20019;-75
2022/03/11 09:04:48;;;;;;;11.50;5.85;;;;;;;;;;5111353;27;20074;-75
2022/03/11 09:07:13;;;;;;;10.95;5.45;;;;;;;;;;5110173;27;20051;-75
2022/03/11 09:09:39;;;;;;;10.60;5.97;;;;;;;;;;5104765;27;20127;-76
2022/03/11 09:12:05;;;;;;;12.65;5.75;;;;;;;;;;5102693;27;20401;-75
2022/03/11 09:14:31;;;;;;;10.40;5.32;;;;;;;;;;5103524;28;20038;-76
2022/03/11 09:16:57;;;;;;;13.82;7.15;;;;;;;;;;5100391;28;20577;-75
2022/03/11 09:19:23;;;;;;;14.27;6.80;;;;;;;;;;5107778;27;20043;-74
2022/03/11 09:21:48;;;;;;;15.35;7.00;;;;;;;;;;5105885;28;20043;-74
2022/03/11 09:24:14;;;;;;;17.50;8.18;;;;;;;;;;5106599;27;20042;-71
2022/03/11 09:26:39;;;;;;;15.55;7.57;;;;;;;;;;5103228;28;20035;-76
2022/03/11 09:29:05;;;;;;;13.90;7.47;;;;;;;;;;5106153;28;20500;-75
2022/03/11 09:31:30;;;;;;;10.32;5.45;;;;;;;;;;5099911;27;20042;-75
2022/03/11 09:33:55;;;;;;;13.82;5.78;;;;;;;;;;5110568;27;20054;-75
2022/03/11 09:36:21;;;;;;;9.43;4.93;;;;;;;;;;5099559;28;20058;-75
2022/03/11 09:38:46;;;;;;;11.90;5.22;;;;;;;;;;5105130;27;20453;-73
2022/03/11 09:41:12;;;;;;;12.35;5.65;;;;;;;;;;5107470;28;20027;-71
2022/03/11 09:43:38;;;;;;;10.63;5.75;;;;;;;;;;5105135;27;20047;-73
2022/03/11 09:46:05;;;;;;;10.55;5.55;;;;;;;;;;5107062;27;20046;-74
2022/03/11 09:48:32;;;;;;;12.30;5.68;;;;;;;;;;5105118;28;20048;-71
2022/03/11 09:50:58;;;;;;;9.57;5.28;;;;;;;;;;5112065;27;20039;-71
2022/03/11 09:53:25;;;;;;;10.70;4.90;;;;;;;;;;5106663;28;20445;-73
2022/03/11 09:55:50;;;;;;;11.00;5.20;;;;;;;;;;5102877;27;20115;-72
2022/03/11 09:58:16;;;;;;;9.48;5.03;;;;;;;;;;5104636;28;20070;-75
2022/03/11 10:00:41;;;;;;;9.75;4.53;;;;;;;;;;5105516;28;20439;-75
2022/03/11 10:03:07;;;;;;;10.27;4.47;;;;;;;;;;5099934;27;20505;-76
2022/03/11 10:05:48;;;;;;;8.63;5.00;;;;;;;;;;5098938;27;20035;-75
2022/03/11 10:08:14;;;;;;;8.82;5.20;;;;;;;;;;5100582;28;20157;-76
2022/03/11 10:10:40;;;;;;;8.20;4.40;;;;;;;;;;5108526;27;20576;-73
2022/03/11 10:13:08;;;;;;;10.23;4.72;;;;;;;;;;5105927;27;20036;-77
2022/03/11 10:15:34;;;;;;;10.18;4.28;;;;;;;;;;5107585;27;20031;-78
2022/03/11 10:18:02;;;;;;;10.13;4.65;;;;;;;;;;5105964;27;20462;-73
2022/03/11 10:20:30;;;;;;;11.55;5.63;;;;;;;;;;5104867;28;20064;-73
2022/03/11 10:22:57;;;;;;;9.70;5.35;;;;;;;;;;5106375;28;20028;-73
2022/03/11 10:25:25;;;;;;;9.77;4.93;;;;;;;;;;5105037;28;20038;-74
2022/03/11 10:27:55;;;;;;;8.75;4.57;;;;;;;;;;5104940;27;20027;-77
2022/03/11 10:30:20;;;;;;;10.77;5.30;;;;;;;;;;5102335;27;20853;-78
2022/03/11 10:33:13;;;;;;;8.30;4.60;;;;;;;;;;5104302;27;20087;-77
2022/03/11 10:35:44;;;;;;;11.18;5.65;;;;;;;;;;5093240;27;20028;-76
2022/03/11 10:38:09;;;;;;;9.85;5.53;;;;;;;;;;5102966;28;20028;-77
2022/03/11 10:40:40;;;;;;;15.02;5.85;;;;;;;;;;5101616;28;20062;-76
2022/03/11 10:43:15;;;;;;;7.70;4.05;;;;;;;;;;5104337;27;20050;-78
2022/03/11 10:45:56;;;;;;;11.07;6.18;;;;;;;;;;5115874;27;20031;-75
2022/03/11 10:48:47;;;;;;;8.20;4.45;;;;;;;;;;5100257;27;20040;-76
2022/03/11 10:51:25;;;;;;;11.65;5.53;;;;;;;;;;5125653;27;20546;-74
2022/03/11 10:53:50;;;;;;;8.32;5.10;;;;;;;;;;5087356;28;20031;-77
2022/03/11 10:56:25;;;;;;;12.63;5.00;;;;;;;;;;5089380;28;20012;-78
2022/03/11 10:58:51;;;;;;;6.68;3.83;;;;;;;;;;5110895;27;20055;-77
2022/03/11 11:01:36;;;;;;;10.38;5.38;;;;;;;;;;5108612;27;20684;-73
2022/03/11 11:04:04;;;;;;;8.82;5.43;;;;;;;;;;5101231;27;20039;-74
2022/03/11 11:06:30;;;;;;;10.02;5.15;;;;;;;;;;5125726;27;20032;-74
2022/03/11 11:08:55;;;;;;;9.63;4.75;;;;;;;;;;5109493;27;20058;-74
2022/03/11 11:11:22;;;;;;;10.60;5.55;;;;;;;;;;5108091;28;20020;-73
2022/03/11 11:13:48;;;;;;;8.85;4.30;;;;;;;;;;5105407;27;20651;-73
2022/03/11 11:16:14;;;;;;;12.60;5.22;;;;;;;;;;5100023;27;20039;-75
2022/03/11 11:18:44;;;;;;;10.30;5.03;;;;;;;;;;5109605;27;20571;-75
2022/03/11 11:21:10;;;;;;;8.95;5.00;;;;;;;;;;5109981;27;20044;-78
2022/03/11 11:23:38;;;;;;;7.88;4.55;;;;;;;;;;5107685;28;20031;-75
2022/03/11 11:26:05;;;;;;;6.72;3.45;;;;;;;;;;5108574;28;20020;-78
2022/03/11 11:28:31;;;;;;;7.22;4.75;;;;;;;;;;5084125;27;20024;-74
2022/03/11 11:30:58;;;;;;;11.63;5.07;;;;;;;;;;5101174;28;20076;-77
2022/03/11 11:33:24;;;;;;;9.55;4.72;;;;;;;;;;5106439;27;20023;-74
2022/03/11 11:35:56;;;;;;;8.25;4.53;;;;;;;;;;5104322;28;20019;-72
2022/03/11 11:38:32;;;;;;;5.80;3.50;;;;;;;;;;5102242;28;20039;-74
2022/03/11 11:40:59;;;;;;;8.30;4.45;;;;;;;;;;5090037;28;20318;-76
2022/03/11 11:43:26;;;;;;;7.32;3.97;;;;;;;;;;5084782;28;20032;-77
2022/03/11 11:46:13;;;;;;;9.20;4.88;;;;;;;;;;5093383;28;20093;-75
2022/03/11 11:48:45;;;;;;;6.43;4.13;;;;;;;;;;5086734;28;20708;-74
2022/03/11 11:51:43;;;;;;;8.07;4.23;;;;;;;;;;5105649;28;20067;-72
2022/03/11 11:54:09;;;;;;;8.02;4.63;;;;;;;;;;5084318;27;20713;-72
2022/03/11 11:56:42;;;;;;;10.32;4.10;;;;;;;;;;5111781;27;20037;-71
2022/03/11 11:59:27;;;;;;;9.40;4.67;;;;;;;;;;5109808;27;20036;-76
2022/03/11 12:01:57;;;;;;;8.73;4.97;;;;;;;;;;5108323;27;20051;-75
2022/03/11 12:04:38;;;;;;;7.57;4.50;;;;;;;;;;5094069;27;20028;-75
2022/03/11 12:07:15;;;;;;;8.68;4.22;;;;;;;;;;5100257;28;20031;-75
2022/03/11 12:09:47;;;;;;;7.22;3.97;;;;;;;;;;5103906;27;20093;-74
2022/03/11 12:12:19;;;;;;;8.75;4.47;;;;;;;;;;5104017;27;20044;-74
2022/03/11 12:15:05;;;;;;;7.03;3.97;;;;;;;;;;5104781;27;20028;-75
2022/03/11 12:17:51;;;;;;;8.15;3.97;;;;;;;;;;5108963;27;20122;-76
2022/03/11 12:20:31;;;;;;;7.25;3.33;;;;;;;;;;5089303;28;20044;-76
2022/03/11 12:23:04;;;;;;;7.70;3.97;;;;;;;;;;5089199;28;20032;-75
2022/03/11 12:25:34;;;;;;;7.40;4.78;;;;;;;;;;5088167;28;20024;-75
2022/03/11 12:28:02;;;;;;;8.77;4.13;;;;;;;;;;5088355;28;20057;-73
2022/03/11 12:30:36;;;;;;;8.10;4.35;;;;;;;;;;5088693;28;20060;-73
2022/03/11 12:33:16;;;;;;;5.95;4.05;;;;;;;;;;5079841;28;20047;-76
2022/03/11 12:35:43;;;;;;;6.57;4.32;;;;;;;;;;5089084;28;20055;-75
2022/03/11 12:38:15;;;;;;;6.45;3.85;;;;;;;;;;5089070;28;20136;-77
2022/03/11 12:40:42;;;;;;;6.78;3.85;;;;;;;;;;5108483;27;20028;-73
2022/03/11 12:43:09;;;;;;;6.97;3.80;;;;;;;;;;5104086;28;20036;-77
2022/03/11 12:45:39;;;;;;;6.93;4.40;;;;;;;;;;5107466;28;20043;-76
2022/03/11 12:48:06;;;;;;;5.25;2.88;;;;;;;;;;5108659;27;20044;-74
2022/03/11 12:50:32;;;;;;;6.28;4.55;;;;;;;;;;5106526;27;20031;-74
2022/03/11 12:52:59;;;;;;;7.10;3.63;;;;;;;;;;5110151;27;20032;-73
2022/03/11 12:55:33;;;;;;;6.63;4.32;;;;;;;;;;5108312;27;20039;-75
2022/03/11 12:58:04;;;;;;;10.30;4.88;;;;;;;;;;5107429;27;20053;-74
2022/03/11 13:00:32;;;;;;;7.28;3.53;;;;;;;;;;5101883;28;20413;-73
2022/03/11 13:02:59;;;;;;;5.50;3.28;;;;;;;;;;5093247;27;20028;-74
2022/03/11 13:05:31;;;;;;;6.90;3.28;;;;;;;;;;5080290;28;20028;-73
2022/03/11 13:08:07;;;;;;;4.60;3.17;;;;;;;;;;5083233;28;20028;-75
2022/03/11 13:10:34;;;;;;;8.32;3.60;;;;;;;;;;5069678;28;20036;-74
2022/03/11 13:13:01;;;;;;;7.90;3.67;;;;;;;;;;5073082;28;20763;-77
2022/03/11 13:15:33;;;;;;;5.75;3.55;;;;;;;;;;5067414;28;20044;-76
2022/03/11 13:18:01;;;;;;;5.72;3.58;;;;;;;;;;5084405;28;20112;-78
2022/03/11 13:20:47;;;;;;;15.50;12.70;;;;;;;;;;5087015;28;20054;-74
2022/03/11 13:23:19;;;;;;;8.55;5.47;;;;;;;;;;5086419;28;20047;-79
2022/03/11 13:26:08;;;;;;;13.13;4.82;;;;;;;;;;5100539;28;20032;-76
2022/03/11 13:28:45;;;;;;;7.28;4.63;;;;;;;;;;5103942;28;20085;-78
2022/03/11 13:31:16;;;;;;;12.30;5.07;;;;;;;;;;5105370;27;20058;-77
2022/03/11 13:33:49;;;;;;;6.78;4.25;;;;;;;;;;5102359;27;20540;-76
2022/03/11 13:36:14;;;;;;;8.77;4.25;;;;;;;;;;5105040;28;20035;-75
2022/03/11 13:39:04;;;;;;;6.93;3.53;;;;;;;;;;5102305;27;20076;-74
2022/03/11 13:41:37;;;;;;;7.97;3.45;;;;;;;;;;5105157;27;20030;-76
2022/03/11 13:44:04;;;;;;;7.47;3.78;;;;;;;;;;5104188;27;20050;-78
2022/03/11 13:46:31;;;;;;;6.30;2.92;;;;;;;;;;5110324;27;20142;-76
2022/03/11 13:49:03;;;;;;;6.03;3.60;;;;;;;;;;5106327;27;20031;-75
2022/03/11 13:51:51;;;;;;;7.38;3.47;;;;;;;;;;5100552;27;20032;-80
2022/03/11 13:54:30;;;;;;;5.85;3.95;;;;;;;;;;5102404;28;20563;-81
2022/03/11 13:56:59;;;;;;;7.70;3.85;;;;;;;;;;5089072;28;20087;-74
2022/03/11 13:59:32;;;;;;;8.02;3.97;;;;;;;;;;5099980;28;20055;-76
2022/03/11 14:02:20;;;;;;;9.43;4.63;;;;;;;;;;5106414;27;20066;-79
2022/03/11 14:04:45;;;;;;;9.90;4.90;;;;;;;;;;5106405;27;20028;-78
2022/03/11 14:07:14;;;;;;;9.50;4.70;;;;;;;;;;5102465;27;20040;-75
2022/03/11 14:09:40;;;;;;;10.73;5.20;;;;;;;;;;5104097;27;20036;-79
2022/03/11 14:12:06;;;;;;;14.73;6.20;;;;;;;;;;5103334;27;20039;-75
2022/03/11 14:14:34;;;;;;;13.52;7.30;;;;;;;;;;5104921;27;20098;-74
2022/03/11 14:17:03;;;;;;;14.50;5.90;;;;;;;;;;5102536;27;20046;-78
2022/03/11 14:19:28;;;;;;;11.10;5.28;;;;;;;;;;5102428;27;20046;-77
2022/03/11 14:21:55;;;;;;;9.13;4.47;;;;;;;;;;5105332;27;20027;-76
2022/03/11 14:24:20;;;;;;;5.45;3.08;;;;;;;;;;5104863;27;20131;-78
2022/03/11 14:26:46;;;;;;;11.05;4.45;;;;;;;;;;5108854;27;20141;-71
2022/03/11 14:29:12;;;;;;;6.93;3.35;;;;;;;;;;5104480;28;20011;-77
2022/03/11 14:31:38;;;;;;;7.82;3.55;;;;;;;;;;5104254;27;20036;-76
2022/03/11 14:34:03;;;;;;;7.10;3.63;;;;;;;;;;5087599;27;20032;-76